sensor_id;sensor_type;location;lat;lon;timestamp;pressure;altitude;pressure_sealevel;temperature;humidity
45369;BME280;51342;55.250;37.668;2023-02-18T00:03:43;99737.19;;;-10.91;70.58
45369;BME280;51342;55.250;37.668;2023-02-18T00:06:16;99732.44;;;-10.95;70.70
45369;BME280;51342;55.250;37.668;2023-02-18T00:08:49;99727.69;;;-10.93;70.66
45369;BME280;51342;55.250;37.668;2023-02-18T00:11:21;99730.38;;;-10.92;70.68
45369;BME280;51342;55.250;37.668;2023-02-18T00:13:56;99725.88;;;-10.94;70.71
45369;BME280;51342;55.250;37.668;2023-02-18T00:16:29;99728.09;;;-10.90;70.73
45369;BME280;51342;55.250;37.668;2023-02-18T00:19:03;99721.50;;;-10.90;70.66
45369;BME280;51342;55.250;37.668;2023-02-18T00:21:35;99709.50;;;-10.92;70.73
45369;BME280;51342;55.250;37.668;2023-02-18T00:24:07;99715.53;;;-10.85;70.79
45369;BME280;51342;55.250;37.668;2023-02-18T00:26:40;99714.88;;;-10.89;70.64
45369;BME280;51342;55.250;37.668;2023-02-18T00:29:12;99706.28;;;-10.91;70.61
45369;BME280;51342;55.250;37.668;2023-02-18T00:31:44;99718.72;;;-10.86;70.71
45369;BME280;51342;55.250;37.668;2023-02-18T00:34:15;99710.13;;;-10.88;70.71
45369;BME280;51342;55.250;37.668;2023-02-18T00:36:47;99712.34;;;-10.84;70.72
45369;BME280;51342;55.250;37.668;2023-02-18T00:39:19;99714.84;;;-10.84;70.81
45369;BME280;51342;55.250;37.668;2023-02-18T00:41:50;99707.84;;;-10.86;70.64
45369;BME280;51342;55.250;37.668;2023-02-18T00:44:22;99707.34;;;-10.84;70.65
45369;BME280;51342;55.250;37.668;2023-02-18T00:46:54;99702.16;;;-10.85;70.69
45369;BME280;51342;55.250;37.668;2023-02-18T00:49:25;99698.03;;;-10.85;70.82
45369;BME280;51342;55.250;37.668;2023-02-18T00:51:56;99696.25;;;-10.86;70.72
45369;BME280;51342;55.250;37.668;2023-02-18T00:54:28;99689.72;;;-10.91;70.92
45369;BME280;51342;55.250;37.668;2023-02-18T00:56:59;99689.25;;;-10.88;70.90
45369;BME280;51342;55.250;37.668;2023-02-18T00:59:31;99676.50;;;-10.90;70.78
45369;BME280;51342;55.250;37.668;2023-02-18T01:02:05;99676.25;;;-10.86;70.80
45369;BME280;51342;55.250;37.668;2023-02-18T01:04:37;99665.16;;;-10.88;70.70
45369;BME280;51342;55.250;37.668;2023-02-18T01:07:09;99672.38;;;-10.84;70.64
45369;BME280;51342;55.250;37.668;2023-02-18T01:09:40;99666.00;;;-10.82;70.72
45369;BME280;51342;55.250;37.668;2023-02-18T01:12:12;99661.00;;;-10.82;70.68
45369;BME280;51342;55.250;37.668;2023-02-18T01:14:43;99651.28;;;-10.86;70.65
45369;BME280;51342;55.250;37.668;2023-02-18T01:17:15;99655.56;;;-10.85;70.75
45369;BME280;51342;55.250;37.668;2023-02-18T01:19:46;99654.66;;;-10.85;70.85
45369;BME280;51342;55.250;37.668;2023-02-18T01:22:18;99645.38;;;-10.86;70.96
45369;BME280;51342;55.250;37.668;2023-02-18T01:24:50;99646.47;;;-10.84;70.79
45369;BME280;51342;55.250;37.668;2023-02-18T01:27:21;99624.94;;;-10.89;70.76
45369;BME280;51342;55.250;37.668;2023-02-18T01:29:53;99628.09;;;-10.85;70.91
45369;BME280;51342;55.250;37.668;2023-02-18T01:32:24;99624.28;;;-10.88;70.79
45369;BME280;51342;55.250;37.668;2023-02-18T01:34:55;99621.78;;;-10.88;70.72
45369;BME280;51342;55.250;37.668;2023-02-18T01:37:27;99619.00;;;-10.84;70.99
45369;BME280;51342;55.250;37.668;2023-02-18T01:39:59;99614.88;;;-10.84;70.89
45369;BME280;51342;55.250;37.668;2023-02-18T01:42:31;99614.44;;;-10.81;70.84
45369;BME280;51342;55.250;37.668;2023-02-18T01:48:41;99594.44;;;-10.81;70.82
45369;BME280;51342;55.250;37.668;2023-02-18T01:51:34;99594.91;;;-10.84;70.68
45369;BME280;51342;55.250;37.668;2023-02-18T01:54:15;99587.34;;;-10.78;70.88
45369;BME280;51342;55.250;37.668;2023-02-18T01:56:53;99583.88;;;-10.73;70.92
45369;BME280;51342;55.250;37.668;2023-02-18T01:59:39;99578.41;;;-10.71;70.62
45369;BME280;51342;55.250;37.668;2023-02-18T02:02:14;99579.03;;;-10.66;70.82
45369;BME280;51342;55.250;37.668;2023-02-18T02:04:47;99574.44;;;-10.63;70.66
45369;BME280;51342;55.250;37.668;2023-02-18T02:07:21;99570.06;;;-10.58;70.87
45369;BME280;51342;55.250;37.668;2023-02-18T02:09:55;99566.88;;;-10.57;70.89
45369;BME280;51342;55.250;37.668;2023-02-18T02:12:42;99573.19;;;-10.54;70.80
45369;BME280;51342;55.250;37.668;2023-02-18T02:24:03;99564.91;;;-10.47;70.73
45369;BME280;51342;55.250;37.668;2023-02-18T02:27:14;99555.31;;;-10.44;70.71
45369;BME280;51342;55.250;37.668;2023-02-18T02:35:39;99547.53;;;-10.40;70.68
45369;BME280;51342;55.250;37.668;2023-02-18T02:38:32;99537.34;;;-10.42;70.92
45369;BME280;51342;55.250;37.668;2023-02-18T02:44:18;99527.53;;;-10.40;70.92
45369;BME280;51342;55.250;37.668;2023-02-18T02:46:54;99526.13;;;-10.38;70.91
45369;BME280;51342;55.250;37.668;2023-02-18T02:50:20;99526.34;;;-10.36;70.93
45369;BME280;51342;55.250;37.668;2023-02-18T02:52:38;99512.97;;;-10.37;70.96
45369;BME280;51342;55.250;37.668;2023-02-18T02:55:11;99508.97;;;-10.29;71.09
45369;BME280;51342;55.250;37.668;2023-02-18T02:57:51;99508.47;;;-10.27;71.29
45369;BME280;51342;55.250;37.668;2023-02-18T03:01:06;99498.78;;;-10.31;71.07
45369;BME280;51342;55.250;37.668;2023-02-18T03:15:46;99468.13;;;-10.23;71.10
45369;BME280;51342;55.250;37.668;2023-02-18T03:18:34;99474.84;;;-10.16;71.11
45369;BME280;51342;55.250;37.668;2023-02-18T03:21:11;99465.94;;;-10.14;71.14
45369;BME280;51342;55.250;37.668;2023-02-18T03:23:49;99460.25;;;-10.13;71.11
45369;BME280;51342;55.250;37.668;2023-02-18T03:26:24;99448.03;;;-10.17;71.29
45369;BME280;51342;55.250;37.668;2023-02-18T03:28:59;99458.63;;;-10.12;71.36
45369;BME280;51342;55.250;37.668;2023-02-18T03:31:36;99449.53;;;-10.12;71.30
45369;BME280;51342;55.250;37.668;2023-02-18T03:34:14;99444.44;;;-10.06;71.27
45369;BME280;51342;55.250;37.668;2023-02-18T03:36:47;99440.94;;;-10.01;71.46
45369;BME280;51342;55.250;37.668;2023-02-18T03:39:20;99425.50;;;-10.04;71.41
45369;BME280;51342;55.250;37.668;2023-02-18T03:41:53;99422.72;;;-10.00;71.70
45369;BME280;51342;55.250;37.668;2023-02-18T03:44:25;99414.50;;;-9.99;71.29
45369;BME280;51342;55.250;37.668;2023-02-18T03:46:56;99428.53;;;-9.94;71.52
45369;BME280;51342;55.250;37.668;2023-02-18T03:49:28;99415.31;;;-9.93;71.56
45369;BME280;51342;55.250;37.668;2023-02-18T03:51:59;99421.22;;;-9.93;71.68
45369;BME280;51342;55.250;37.668;2023-02-18T03:54:31;99412.13;;;-9.92;71.63
45369;BME280;51342;55.250;37.668;2023-02-18T03:57:02;99409.31;;;-9.88;71.65
45369;BME280;51342;55.250;37.668;2023-02-18T03:59:34;99406.09;;;-9.87;71.70
45369;BME280;51342;55.250;37.668;2023-02-18T04:02:05;99391.78;;;-9.88;71.87
45369;BME280;51342;55.250;37.668;2023-02-18T04:04:37;99393.56;;;-9.87;71.92
45369;BME280;51342;55.250;37.668;2023-02-18T04:07:08;99394.19;;;-9.82;71.87
45369;BME280;51342;55.250;37.668;2023-02-18T04:09:40;99384.59;;;-9.79;71.91
45369;BME280;51342;55.250;37.668;2023-02-18T04:12:11;99378.69;;;-9.80;71.80
45369;BME280;51342;55.250;37.668;2023-02-18T04:14:42;99372.25;;;-9.78;71.98
45369;BME280;51342;55.250;37.668;2023-02-18T04:17:14;99361.88;;;-9.81;72.22
45369;BME280;51342;55.250;37.668;2023-02-18T04:19:45;99367.84;;;-9.73;72.03
45369;BME280;51342;55.250;37.668;2023-02-18T04:22:17;99362.31;;;-9.71;72.10
45369;BME280;51342;55.250;37.668;2023-02-18T04:24:48;99367.75;;;-9.68;72.11
45369;BME280;51342;55.250;37.668;2023-02-18T04:27:20;99364.34;;;-9.68;72.08
45369;BME280;51342;55.250;37.668;2023-02-18T04:29:51;99358.63;;;-9.67;72.20
45369;BME280;51342;55.250;37.668;2023-02-18T04:32:23;99358.44;;;-9.69;72.16
45369;BME280;51342;55.250;37.668;2023-02-18T04:34:54;99352.53;;;-9.69;72.16
45369;BME280;51342;55.250;37.668;2023-02-18T04:37:26;99344.81;;;-9.71;72.30
45369;BME280;51342;55.250;37.668;2023-02-18T04:39:57;99351.13;;;-9.67;72.12
45369;BME280;51342;55.250;37.668;2023-02-18T04:42:29;99358.81;;;-9.66;72.21
45369;BME280;51342;55.250;37.668;2023-02-18T04:45:00;99350.59;;;-9.65;72.34
45369;BME280;51342;55.250;37.668;2023-02-18T04:47:32;99349.03;;;-9.64;72.49
45369;BME280;51342;55.250;37.668;2023-02-18T04:50:04;99360.31;;;-9.61;72.46
45369;BME280;51342;55.250;37.668;2023-02-18T04:52:36;99343.78;;;-9.66;72.37
45369;BME280;51342;55.250;37.668;2023-02-18T04:55:07;99350.47;;;-9.59;72.42
45369;BME280;51342;55.250;37.668;2023-02-18T04:57:38;99355.50;;;-9.59;72.47
45369;BME280;51342;55.250;37.668;2023-02-18T05:00:13;99360.00;;;-9.56;72.30
45369;BME280;51342;55.250;37.668;2023-02-18T05:02:45;99343.56;;;-9.54;72.34
45369;BME280;51342;55.250;37.668;2023-02-18T05:05:17;99347.88;;;-9.53;72.40
45369;BME280;51342;55.250;37.668;2023-02-18T05:07:48;99336.94;;;-9.54;72.46
45369;BME280;51342;55.250;37.668;2023-02-18T05:10:20;99329.84;;;-9.51;72.31
45369;BME280;51342;55.250;37.668;2023-02-18T05:12:51;99328.22;;;-9.50;72.20
45369;BME280;51342;55.250;37.668;2023-02-18T05:15:22;99326.09;;;-9.47;72.35
45369;BME280;51342;55.250;37.668;2023-02-18T05:17:54;99322.03;;;-9.47;72.30
45369;BME280;51342;55.250;37.668;2023-02-18T05:20:26;99324.31;;;-9.48;72.26
45369;BME280;51342;55.250;37.668;2023-02-18T05:22:57;99313.41;;;-9.49;72.30
45369;BME280;51342;55.250;37.668;2023-02-18T05:25:29;99313.09;;;-9.45;72.40
45369;BME280;51342;55.250;37.668;2023-02-18T05:28:00;99300.75;;;-9.43;72.45
45369;BME280;51342;55.250;37.668;2023-02-18T05:30:31;99303.97;;;-9.44;72.33
45369;BME280;51342;55.250;37.668;2023-02-18T05:33:03;99282.16;;;-9.45;72.34
45369;BME280;51342;55.250;37.668;2023-02-18T05:35:34;99289.00;;;-9.37;72.37
45369;BME280;51342;55.250;37.668;2023-02-18T05:38:06;99291.19;;;-9.33;72.41
45369;BME280;51342;55.250;37.668;2023-02-18T05:40:37;99279.56;;;-9.32;72.30
45369;BME280;51342;55.250;37.668;2023-02-18T05:43:09;99279.25;;;-9.28;72.26
45369;BME280;51342;55.250;37.668;2023-02-18T05:45:40;99267.44;;;-9.29;72.18
45369;BME280;51342;55.250;37.668;2023-02-18T05:48:12;99256.41;;;-9.24;72.16
45369;BME280;51342;55.250;37.668;2023-02-18T05:50:43;99254.97;;;-9.22;72.15
45369;BME280;51342;55.250;37.668;2023-02-18T05:53:15;99262.19;;;-9.18;72.23
45369;BME280;51342;55.250;37.668;2023-02-18T05:55:46;99251.63;;;-9.16;72.17
45369;BME280;51342;55.250;37.668;2023-02-18T05:58:18;99244.28;;;-9.14;72.05
45369;BME280;51342;55.250;37.668;2023-02-18T06:00:49;99245.97;;;-9.08;72.21
45369;BME280;51342;55.250;37.668;2023-02-18T06:03:21;99232.53;;;-9.08;72.16
45369;BME280;51342;55.250;37.668;2023-02-18T06:05:52;99232.94;;;-9.05;72.13
45369;BME280;51342;55.250;37.668;2023-02-18T06:08:24;99227.06;;;-8.98;72.15
45369;BME280;51342;55.250;37.668;2023-02-18T06:10:55;99234.44;;;-8.93;72.17
45369;BME280;51342;55.250;37.668;2023-02-18T06:13:27;99222.44;;;-8.95;72.26
45369;BME280;51342;55.250;37.668;2023-02-18T06:15:58;99221.25;;;-8.85;72.18
45369;BME280;51342;55.250;37.668;2023-02-18T06:18:30;99222.91;;;-8.78;72.11
45369;BME280;51342;55.250;37.668;2023-02-18T06:21:01;99215.03;;;-8.74;72.03
45369;BME280;51342;55.250;37.668;2023-02-18T06:23:32;99217.06;;;-8.64;71.91
45369;BME280;51342;55.250;37.668;2023-02-18T06:26:04;99211.00;;;-8.59;71.99
45369;BME280;51342;55.250;37.668;2023-02-18T06:28:36;99200.66;;;-8.55;71.97
45369;BME280;51342;55.250;37.668;2023-02-18T06:31:07;99206.44;;;-8.42;71.81
45369;BME280;51342;55.250;37.668;2023-02-18T06:33:39;99189.06;;;-8.40;71.91
45369;BME280;51342;55.250;37.668;2023-02-18T06:36:11;99188.19;;;-8.34;71.76
45369;BME280;51342;55.250;37.668;2023-02-18T06:38:44;99171.88;;;-8.37;71.69
45369;BME280;51342;55.250;37.668;2023-02-18T06:41:15;99176.00;;;-8.31;71.73
45369;BME280;51342;55.250;37.668;2023-02-18T06:43:47;99170.06;;;-8.31;71.79
45369;BME280;51342;55.250;37.668;2023-02-18T06:46:18;99170.28;;;-8.22;71.62
45369;BME280;51342;55.250;37.668;2023-02-18T06:48:50;99164.41;;;-8.16;71.54
45369;BME280;51342;55.250;37.668;2023-02-18T06:51:21;99157.41;;;-8.11;71.62
45369;BME280;51342;55.250;37.668;2023-02-18T06:53:53;99150.06;;;-8.10;71.46
45369;BME280;51342;55.250;37.668;2023-02-18T06:56:24;99147.19;;;-8.06;71.41
45369;BME280;51342;55.250;37.668;2023-02-18T06:58:56;99136.47;;;-8.05;71.29
45369;BME280;51342;55.250;37.668;2023-02-18T07:01:27;99140.03;;;-7.95;71.24
45369;BME280;51342;55.250;37.668;2023-02-18T07:03:59;99125.19;;;-7.94;71.30
45369;BME280;51342;55.250;37.668;2023-02-18T07:06:30;99125.03;;;-7.88;71.35
45369;BME280;51342;55.250;37.668;2023-02-18T07:09:02;99123.56;;;-7.86;71.01
45369;BME280;51342;55.250;37.668;2023-02-18T07:11:33;99116.75;;;-7.80;70.92
45369;BME280;51342;55.250;37.668;2023-02-18T07:14:06;99107.44;;;-7.74;71.11
45369;BME280;51342;55.250;37.668;2023-02-18T07:16:37;99099.56;;;-7.70;70.87
45369;BME280;51342;55.250;37.668;2023-02-18T07:19:09;99099.19;;;-7.59;70.75
45369;BME280;51342;55.250;37.668;2023-02-18T07:21:41;99098.47;;;-7.51;70.84
45369;BME280;51342;55.250;37.668;2023-02-18T07:24:12;99087.69;;;-7.50;70.54
45369;BME280;51342;55.250;37.668;2023-02-18T07:26:43;99097.75;;;-7.42;70.56
45369;BME280;51342;55.250;37.668;2023-02-18T07:29:15;99098.81;;;-7.40;70.44
45369;BME280;51342;55.250;37.668;2023-02-18T07:31:46;99090.56;;;-7.39;70.37
45369;BME280;51342;55.250;37.668;2023-02-18T07:34:18;99076.94;;;-7.41;70.38
45369;BME280;51342;55.250;37.668;2023-02-18T07:36:49;99076.75;;;-7.36;70.36
45369;BME280;51342;55.250;37.668;2023-02-18T07:39:20;99081.19;;;-7.26;70.35
45369;BME280;51342;55.250;37.668;2023-02-18T07:41:52;99072.03;;;-7.18;70.12
45369;BME280;51342;55.250;37.668;2023-02-18T07:44:23;99067.72;;;-7.19;69.72
45369;BME280;51342;55.250;37.668;2023-02-18T07:46:57;99056.59;;;-7.22;70.12
45369;BME280;51342;55.250;37.668;2023-02-18T07:49:30;99062.16;;;-7.17;70.09
45369;BME280;51342;55.250;37.668;2023-02-18T07:52:01;99057.66;;;-7.12;69.94
45369;BME280;51342;55.250;37.668;2023-02-18T07:54:33;99038.59;;;-7.03;69.71
45369;BME280;51342;55.250;37.668;2023-02-18T07:57:05;99036.03;;;-6.89;69.81
45369;BME280;51342;55.250;37.668;2023-02-18T07:59:36;99022.19;;;-6.85;69.23
45369;BME280;51342;55.250;37.668;2023-02-18T08:02:16;99027.53;;;-6.82;69.49
45369;BME280;51342;55.250;37.668;2023-02-18T08:04:48;99022.09;;;-6.71;69.59
45369;BME280;51342;55.250;37.668;2023-02-18T08:07:20;99015.25;;;-6.65;69.04
45369;BME280;51342;55.250;37.668;2023-02-18T08:09:54;99010.19;;;-6.58;68.98
45369;BME280;51342;55.250;37.668;2023-02-18T08:12:25;99015.00;;;-6.52;68.97
45369;BME280;51342;55.250;37.668;2023-02-18T08:14:57;99016.06;;;-6.50;68.86
45369;BME280;51342;55.250;37.668;2023-02-18T08:17:28;99018.41;;;-6.52;68.75
45369;BME280;51342;55.250;37.668;2023-02-18T08:20:00;99006.06;;;-6.57;68.68
45369;BME280;51342;55.250;37.668;2023-02-18T08:22:31;99011.56;;;-6.53;68.65
45369;BME280;51342;55.250;37.668;2023-02-18T08:25:03;99000.53;;;-6.39;68.62
45369;BME280;51342;55.250;37.668;2023-02-18T08:27:35;98988.56;;;-6.26;68.42
45369;BME280;51342;55.250;37.668;2023-02-18T08:30:07;98985.44;;;-6.16;68.35
45369;BME280;51342;55.250;37.668;2023-02-18T08:32:39;98983.09;;;-6.15;68.07
45369;BME280;51342;55.250;37.668;2023-02-18T08:35:12;98982.56;;;-6.19;68.04
45369;BME280;51342;55.250;37.668;2023-02-18T08:37:45;98966.06;;;-6.24;67.88
45369;BME280;51342;55.250;37.668;2023-02-18T08:40:17;98963.56;;;-6.24;67.82
45369;BME280;51342;55.250;37.668;2023-02-18T08:42:48;98968.38;;;-6.19;67.87
45369;BME280;51342;55.250;37.668;2023-02-18T08:45:19;98962.78;;;-6.16;67.75
45369;BME280;51342;55.250;37.668;2023-02-18T08:47:51;98955.22;;;-6.16;67.48
45369;BME280;51342;55.250;37.668;2023-02-18T08:50:22;98956.13;;;-6.16;67.58
45369;BME280;51342;55.250;37.668;2023-02-18T08:52:57;98946.41;;;-6.12;67.50
45369;BME280;51342;55.250;37.668;2023-02-18T08:55:34;98944.56;;;-6.06;67.36
45369;BME280;51342;55.250;37.668;2023-02-18T08:58:08;98948.63;;;-6.00;67.20
45369;BME280;51342;55.250;37.668;2023-02-18T09:00:41;98930.56;;;-5.96;67.03
45369;BME280;51342;55.250;37.668;2023-02-18T09:03:13;98927.66;;;-5.92;66.79
45369;BME280;51342;55.250;37.668;2023-02-18T09:05:45;98922.03;;;-5.89;66.81
45369;BME280;51342;55.250;37.668;2023-02-18T09:08:19;98925.03;;;-5.84;66.45
45369;BME280;51342;55.250;37.668;2023-02-18T09:10:59;98917.69;;;-5.67;66.26
45369;BME280;51342;55.250;37.668;2023-02-18T09:13:32;98910.28;;;-5.50;65.95
45369;BME280;51342;55.250;37.668;2023-02-18T09:16:11;98900.41;;;-5.40;65.82
45369;BME280;51342;55.250;37.668;2023-02-18T09:18:44;98901.31;;;-5.39;65.40
45369;BME280;51342;55.250;37.668;2023-02-18T09:21:19;98901.50;;;-5.53;65.49
45369;BME280;51342;55.250;37.668;2023-02-18T09:23:50;98898.47;;;-5.58;65.63
45369;BME280;51342;55.250;37.668;2023-02-18T09:26:22;98888.16;;;-5.68;65.71
45369;BME280;51342;55.250;37.668;2023-02-18T09:28:55;98881.19;;;-5.71;65.76
45369;BME280;51342;55.250;37.668;2023-02-18T09:31:27;98876.53;;;-5.75;65.80
45369;BME280;51342;55.250;37.668;2023-02-18T09:34:01;98868.44;;;-5.72;65.61
45369;BME280;51342;55.250;37.668;2023-02-18T09:36:37;98860.22;;;-5.78;65.50
45369;BME280;51342;55.250;37.668;2023-02-18T09:39:09;98870.06;;;-5.73;65.53
45369;BME280;51342;55.250;37.668;2023-02-18T09:41:51;98861.66;;;-5.80;65.29
45369;BME280;51342;55.250;37.668;2023-02-18T09:44:28;98857.13;;;-5.76;65.38
45369;BME280;51342;55.250;37.668;2023-02-18T09:49:54;98837.84;;;-5.60;65.08
45369;BME280;51342;55.250;37.668;2023-02-18T09:52:33;98819.81;;;-5.55;64.71
45369;BME280;51342;55.250;37.668;2023-02-18T09:55:17;98816.13;;;-5.50;64.73
45369;BME280;51342;55.250;37.668;2023-02-18T09:57:57;98795.69;;;-5.45;64.80
45369;BME280;51342;55.250;37.668;2023-02-18T10:00:44;98803.34;;;-5.36;64.61
45369;BME280;51342;55.250;37.668;2023-02-18T10:03:21;98808.34;;;-5.20;64.61
45369;BME280;51342;55.250;37.668;2023-02-18T10:08:41;98795.69;;;-5.04;64.24
45369;BME280;51342;55.250;37.668;2023-02-18T10:11:39;98784.13;;;-5.02;64.29
45369;BME280;51342;55.250;37.668;2023-02-18T10:14:13;98775.25;;;-4.99;64.18
45369;BME280;51342;55.250;37.668;2023-02-18T10:16:46;98777.16;;;-4.96;64.28
45369;BME280;51342;55.250;37.668;2023-02-18T10:19:35;98780.16;;;-4.92;64.22
45369;BME280;51342;55.250;37.668;2023-02-18T10:22:12;98765.91;;;-4.91;63.98
45369;BME280;51342;55.250;37.668;2023-02-18T10:24:59;98774.22;;;-4.92;63.98
45369;BME280;51342;55.250;37.668;2023-02-18T10:27:36;98759.38;;;-4.89;63.97
45369;BME280;51342;55.250;37.668;2023-02-18T10:32:46;98761.81;;;-4.82;63.79
45369;BME280;51342;55.250;37.668;2023-02-18T10:35:37;98750.38;;;-4.78;63.73
45369;BME280;51342;55.250;37.668;2023-02-18T10:41:20;98749.06;;;-4.75;63.43
45369;BME280;51342;55.250;37.668;2023-02-18T10:47:18;98746.38;;;-4.76;63.60
45369;BME280;51342;55.250;37.668;2023-02-18T10:49:58;98742.53;;;-4.82;63.60
45369;BME280;51342;55.250;37.668;2023-02-18T10:52:38;98736.88;;;-4.88;63.64
45369;BME280;51342;55.250;37.668;2023-02-18T10:55:14;98732.66;;;-4.96;63.60
45369;BME280;51342;55.250;37.668;2023-02-18T10:57:54;98725.97;;;-5.04;63.64
45369;BME280;51342;55.250;37.668;2023-02-18T11:00:34;98729.03;;;-5.15;63.76
45369;BME280;51342;55.250;37.668;2023-02-18T11:03:18;98719.78;;;-5.23;63.75
45369;BME280;51342;55.250;37.668;2023-02-18T11:05:55;98719.56;;;-5.34;63.71
45369;BME280;51342;55.250;37.668;2023-02-18T11:08:35;98712.34;;;-5.30;63.76
45369;BME280;51342;55.250;37.668;2023-02-18T11:11:27;98717.16;;;-5.41;63.76
45369;BME280;51342;55.250;37.668;2023-02-18T11:14:03;98686.00;;;-5.50;63.76
45369;BME280;51342;55.250;37.668;2023-02-18T11:16:43;98703.81;;;-5.40;63.66
45369;BME280;51342;55.250;37.668;2023-02-18T11:19:34;98700.13;;;-5.43;63.66
45369;BME280;51342;55.250;37.668;2023-02-18T11:22:20;98693.75;;;-5.40;63.61
45369;BME280;51342;55.250;37.668;2023-02-18T11:25:01;98680.72;;;-5.36;63.62
45369;BME280;51342;55.250;37.668;2023-02-18T11:27:44;98683.44;;;-5.25;63.50
45369;BME280;51342;55.250;37.668;2023-02-18T11:30:22;98673.09;;;-5.11;63.54
45369;BME280;51342;55.250;37.668;2023-02-18T11:33:02;98668.53;;;-5.07;63.31
45369;BME280;51342;55.250;37.668;2023-02-18T11:35:35;98660.81;;;-5.08;63.16
45369;BME280;51342;55.250;37.668;2023-02-18T11:38:23;98652.22;;;-5.10;63.02
45369;BME280;51342;55.250;37.668;2023-02-18T11:41:03;98649.84;;;-5.09;63.15
45369;BME280;51342;55.250;37.668;2023-02-18T11:43:54;98658.84;;;-5.11;63.33
45369;BME280;51342;55.250;37.668;2023-02-18T11:47:17;98652.50;;;-5.07;63.14
45369;BME280;51342;55.250;37.668;2023-02-18T11:52:49;98639.16;;;-5.06;63.13
45369;BME280;51342;55.250;37.668;2023-02-18T11:55:23;98645.69;;;-4.99;63.07
45369;BME280;51342;55.250;37.668;2023-02-18T11:58:03;98646.28;;;-5.02;63.06
45369;BME280;51342;55.250;37.668;2023-02-18T12:00:49;98645.06;;;-5.14;63.50
45369;BME280;51342;55.250;37.668;2023-02-18T12:06:27;98632.75;;;-5.20;63.14
45369;BME280;51342;55.250;37.668;2023-02-18T12:09:06;98639.28;;;-5.13;63.13
45369;BME280;51342;55.250;37.668;2023-02-18T12:11:42;98631.72;;;-5.13;63.06
45369;BME280;51342;55.250;37.668;2023-02-18T12:14:18;98628.16;;;-5.15;63.17
45369;BME280;51342;55.250;37.668;2023-02-18T12:37:43;98602.84;;;-5.50;63.39
45369;BME280;51342;55.250;37.668;2023-02-18T12:40:54;98597.75;;;-5.58;63.55
45369;BME280;51342;55.250;37.668;2023-02-18T12:46:41;98600.13;;;-5.60;63.59
45369;BME280;51342;55.250;37.668;2023-02-18T12:50:19;98589.63;;;-5.80;64.06
45369;BME280;51342;55.250;37.668;2023-02-18T12:58:46;98582.94;;;-5.89;63.94
45369;BME280;51342;55.250;37.668;2023-02-18T13:04:24;98567.25;;;-5.95;64.02
45369;BME280;51342;55.250;37.668;2023-02-18T13:07:31;98568.53;;;-5.98;63.99
45369;BME280;51342;55.250;37.668;2023-02-18T13:10:42;98567.91;;;-6.04;63.90
45369;BME280;51342;55.250;37.668;2023-02-18T13:13:25;98566.72;;;-6.08;64.37
45369;BME280;51342;55.250;37.668;2023-02-18T13:19:02;98558.41;;;-6.07;64.41
45369;BME280;51342;55.250;37.668;2023-02-18T13:21:39;98556.06;;;-6.05;64.45
45369;BME280;51342;55.250;37.668;2023-02-18T13:24:36;98560.63;;;-6.10;64.46
45369;BME280;51342;55.250;37.668;2023-02-18T13:27:28;98538.38;;;-6.14;64.42
45369;BME280;51342;55.250;37.668;2023-02-18T13:36:19;98540.16;;;-6.13;64.64
45369;BME280;51342;55.250;37.668;2023-02-18T13:39:15;98546.69;;;-6.15;64.69
45369;BME280;51342;55.250;37.668;2023-02-18T13:41:51;98532.16;;;-6.18;65.03
45369;BME280;51342;55.250;37.668;2023-02-18T13:55:55;98510.81;;;-6.21;65.03
45369;BME280;51342;55.250;37.668;2023-02-18T13:58:50;98507.97;;;-6.24;65.06
45369;BME280;51342;55.250;37.668;2023-02-18T14:04:47;98514.91;;;-6.30;65.23
45369;BME280;51342;55.250;37.668;2023-02-18T14:07:44;98497.53;;;-6.36;65.29
45369;BME280;51342;55.250;37.668;2023-02-18T14:20:49;98486.84;;;-6.42;65.56
45369;BME280;51342;55.250;37.668;2023-02-18T14:28:43;98478.28;;;-6.44;65.81
45369;BME280;51342;55.250;37.668;2023-02-18T14:31:27;98483.78;;;-6.39;65.96
45369;BME280;51342;55.250;37.668;2023-02-18T14:34:29;98475.59;;;-6.46;65.92
45369;BME280;51342;55.250;37.668;2023-02-18T14:37:31;98474.53;;;-6.48;66.17
45369;BME280;51342;55.250;37.668;2023-02-18T14:49:07;98459.16;;;-6.51;66.28
45369;BME280;51342;55.250;37.668;2023-02-18T14:51:45;98454.13;;;-6.51;66.66
45369;BME280;51342;55.250;37.668;2023-02-18T14:54:23;98452.16;;;-6.53;66.43
45369;BME280;51342;55.250;37.668;2023-02-18T14:56:59;98447.72;;;-6.56;66.57
45369;BME280;51342;55.250;37.668;2023-02-18T14:59:40;98445.63;;;-6.60;66.61
45369;BME280;51342;55.250;37.668;2023-02-18T15:02:23;98451.72;;;-6.58;66.69
45369;BME280;51342;55.250;37.668;2023-02-18T15:05:22;98450.66;;;-6.60;66.68
45369;BME280;51342;55.250;37.668;2023-02-18T15:08:04;98426.97;;;-6.62;66.76
45369;BME280;51342;55.250;37.668;2023-02-18T15:10:58;98439.13;;;-6.58;66.89
45369;BME280;51342;55.250;37.668;2023-02-18T15:13:41;98436.28;;;-6.61;66.88
45369;BME280;51342;55.250;37.668;2023-02-18T15:16:31;98430.22;;;-6.63;66.83
45369;BME280;51342;55.250;37.668;2023-02-18T15:19:18;98424.59;;;-6.60;66.93
45369;BME280;51342;55.250;37.668;2023-02-18T15:21:59;98418.69;;;-6.61;67.11
45369;BME280;51342;55.250;37.668;2023-02-18T15:24:37;98419.72;;;-6.59;67.11
45369;BME280;51342;55.250;37.668;2023-02-18T15:27:15;98420.47;;;-6.60;67.15
45369;BME280;51342;55.250;37.668;2023-02-18T15:30:01;98409.22;;;-6.63;67.15
45369;BME280;51342;55.250;37.668;2023-02-18T15:32:33;98408.97;;;-6.58;67.46
45369;BME280;51342;55.250;37.668;2023-02-18T15:39:03;98394.56;;;-6.59;67.47
45369;BME280;51342;55.250;37.668;2023-02-18T15:41:36;98392.06;;;-6.59;67.53
45369;BME280;51342;55.250;37.668;2023-02-18T15:44:07;98391.50;;;-6.56;67.50
45369;BME280;51342;55.250;37.668;2023-02-18T15:46:39;98383.94;;;-6.56;67.51
45369;BME280;51342;55.250;37.668;2023-02-18T15:49:16;98387.50;;;-6.54;67.67
45369;BME280;51342;55.250;37.668;2023-02-18T15:51:59;98373.75;;;-6.58;67.74
45369;BME280;51342;55.250;37.668;2023-02-18T15:54:38;98373.56;;;-6.59;67.68
45369;BME280;51342;55.250;37.668;2023-02-18T15:57:15;98373.16;;;-6.55;67.80